Time;durP1;ratioP1;P1;durP2;ratioP2;P2;SDS_P1;SDS_P2;PMS_P1;PMS_P2;Temp;Humidity;BMP_temperature;BMP_pressure;BME280_temperature;BME280_humidity;BME280_pressure;Samples;Min_cycle;Max_cycle;Signal;HPM_P1;HPM_P2
2022/04/15 00:01:55;;;;;;;1.89;1.60;;;;;;;17.96;49.32;100995.36;;;;-50
2022/04/15 00:04:57;;;;;;;1.85;1.63;;;;;;;17.95;49.30;100996.55;;;;-50
2022/04/15 00:08:25;;;;;;;2.18;1.60;;;;;;;17.95;49.28;100999.22;;;;-50
2022/04/15 00:11:25;;;;;;;1.70;1.60;;;;;;;17.94;49.30;101000.59;;;;-51
2022/04/15 00:14:29;;;;;;;1.67;1.57;;;;;;;17.94;49.36;100999.05;;;;-60
2022/04/15 00:46:59;;;;;;;2.03;1.83;;;;;;;17.94;49.18;101003.35;;;;-50
2022/04/15 00:49:59;;;;;;;1.50;1.40;;;;;;;17.93;49.21;101002.70;;;;-51
2022/04/15 00:52:59;;;;;;;1.79;1.69;;;;;;;17.93;49.22;100999.02;;;;-51
2022/04/15 00:56:01;;;;;;;1.61;1.51;;;;;;;17.93;49.22;101004.20;;;;-51
2022/04/15 00:58:29;;;;;;;1.56;1.46;;;;;;;17.91;49.16;101000.46;;;;-51
2022/04/15 01:01:59;;;;;;;2.20;1.76;;;;;;;17.90;49.17;101000.67;;;;-51
2022/04/15 01:04:59;;;;;;;1.72;1.62;;;;;;;17.90;49.16;101003.19;;;;-49
2022/04/15 01:08:00;;;;;;;1.70;1.60;;;;;;;17.88;49.25;101001.92;;;;-46
2022/04/15 01:11:00;;;;;;;1.70;1.60;;;;;;;17.88;49.21;101003.55;;;;-46
2022/04/15 01:13:29;;;;;;;1.69;1.59;;;;;;;17.87;49.21;101003.30;;;;-46
2022/04/15 01:22:29;;;;;;;1.96;1.75;;;;;;;17.86;49.29;101005.77;;;;-46
2022/04/15 01:25:59;;;;;;;2.06;1.70;;;;;;;17.85;49.28;101002.93;;;;-46
2022/04/15 01:28:59;;;;;;;1.79;1.69;;;;;;;17.85;49.23;101002.52;;;;-46
2022/04/15 01:32:03;;;;;;;1.87;1.67;;;;;;;17.84;49.20;101003.30;;;;-46
2022/04/15 01:35:00;;;;;;;1.83;1.71;;;;;;;17.83;49.30;101007.26;;;;-46
2022/04/15 01:48:03;;;;;;;1.80;1.70;;;;;;;17.82;49.33;101018.13;;;;-59
2022/04/15 01:51:03;;;;;;;1.77;1.67;;;;;;;17.81;49.20;101018.38;;;;-50
2022/04/15 01:54:34;;;;;;;1.59;1.49;;;;;;;17.82;49.26;101024.05;;;;-50
2022/04/15 01:57:33;;;;;;;1.90;1.80;;;;;;;17.81;49.27;101020.48;;;;-60
2022/04/15 02:00:33;;;;;;;1.75;1.52;;;;;;;17.80;49.23;101020.60;;;;-59
2022/04/15 02:03:03;;;;;;;1.78;1.68;;;;;;;17.80;49.19;101021.41;;;;-61
2022/04/15 02:06:33;;;;;;;2.11;1.62;;;;;;;17.79;49.19;101018.97;;;;-60
2022/04/15 02:09:33;;;;;;;1.85;1.60;;;;;;;17.79;49.26;101017.52;;;;-59
2022/04/15 02:12:33;;;;;;;1.71;1.61;;;;;;;17.79;49.18;101021.16;;;;-59
2022/04/15 02:15:33;;;;;;;1.61;1.51;;;;;;;17.78;49.22;101025.05;;;;-58
2022/04/15 02:18:33;;;;;;;1.86;1.76;;;;;;;17.78;49.20;101029.87;;;;-60
2022/04/15 02:21:03;;;;;;;1.75;1.65;;;;;;;17.78;49.21;101032.15;;;;-45
2022/04/15 02:24:33;;;;;;;1.68;1.58;;;;;;;17.77;49.21;101036.61;;;;-46
2022/04/15 02:27:33;;;;;;;1.77;1.67;;;;;;;17.76;49.19;101035.27;;;;-45
2022/04/15 02:30:33;;;;;;;1.70;1.60;;;;;;;17.76;49.21;101035.27;;;;-46
2022/04/15 02:33:33;;;;;;;1.70;1.60;;;;;;;17.75;49.22;101033.72;;;;-46
2022/04/15 02:36:33;;;;;;;1.70;1.60;;;;;;;17.75;49.17;101035.91;;;;-45
2022/04/15 02:39:34;;;;;;;2.22;1.65;;;;;;;17.75;49.20;101040.20;;;;-46
2022/04/15 02:42:03;;;;;;;1.74;1.64;;;;;;;17.75;49.17;101045.39;;;;-45
2022/04/15 02:45:33;;;;;;;1.80;1.70;;;;;;;17.75;49.11;101042.15;;;;-46
2022/04/15 02:48:33;;;;;;;1.80;1.70;;;;;;;17.74;49.13;101041.66;;;;-47
2022/04/15 02:51:33;;;;;;;1.71;1.61;;;;;;;17.74;49.16;101041.95;;;;-49
2022/04/15 02:54:33;;;;;;;1.71;1.61;;;;;;;17.74;49.16;101043.24;;;;-50
2022/04/15 02:57:33;;;;;;;1.70;1.60;;;;;;;17.74;49.17;101042.67;;;;-49
2022/04/15 03:00:33;;;;;;;2.29;1.70;;;;;;;17.73;49.11;101042.91;;;;-50
2022/04/15 03:03:34;;;;;;;1.70;1.60;;;;;;;17.73;49.09;101039.91;;;;-50
2022/04/15 03:06:34;;;;;;;1.90;1.71;;;;;;;17.73;49.13;101034.88;;;;-50
2022/04/15 03:09:33;;;;;;;1.78;1.63;;;;;;;17.72;49.11;101035.17;;;;-59
2022/04/15 03:12:33;;;;;;;1.89;1.79;;;;;;;17.71;49.14;101038.98;;;;-58
2022/04/15 03:15:37;;;;;;;1.91;1.75;;;;;;;17.72;49.06;101039.02;;;;-59
2022/04/15 03:18:33;;;;;;;2.10;1.90;;;;;;;17.70;49.13;101035.24;;;;-59
2022/04/15 03:21:35;;;;;;;1.80;1.70;;;;;;;17.70;49.07;101034.11;;;;-60
2022/04/15 03:24:04;;;;;;;2.14;1.57;;;;;;;17.70;49.10;101030.78;;;;-59
2022/04/15 03:27:04;;;;;;;1.87;1.77;;;;;;;17.70;49.13;101033.98;;;;-59
2022/04/15 03:30:04;;;;;;;1.90;1.80;;;;;;;17.68;49.11;101035.11;;;;-58
2022/04/15 03:33:04;;;;;;;1.74;1.64;;;;;;;17.69;49.08;101034.47;;;;-60
2022/04/15 03:36:04;;;;;;;1.69;1.59;;;;;;;17.68;49.12;101037.55;;;;-58
2022/04/15 03:39:04;;;;;;;2.00;1.85;;;;;;;17.68;49.11;101037.38;;;;-59
2022/04/15 03:42:04;;;;;;;1.81;1.71;;;;;;;17.68;49.11;101042.56;;;;-51
2022/04/15 03:45:03;;;;;;;1.90;1.80;;;;;;;17.66;49.05;101040.42;;;;-51
2022/04/15 03:48:04;;;;;;;1.77;1.67;;;;;;;17.67;49.17;101041.80;;;;-51
2022/04/15 03:51:04;;;;;;;1.75;1.65;;;;;;;17.66;49.05;101039.60;;;;-51
2022/04/15 03:54:04;;;;;;;2.01;1.91;;;;;;;17.65;49.11;101045.08;;;;-51
2022/04/15 03:57:04;;;;;;;1.84;1.74;;;;;;;17.66;49.03;101046.63;;;;-51
2022/04/15 04:00:04;;;;;;;1.83;1.73;;;;;;;17.65;49.13;101045.31;;;;-51
2022/04/15 04:03:04;;;;;;;1.91;1.79;;;;;;;17.65;49.06;101048.07;;;;-51
2022/04/15 04:06:03;;;;;;;1.87;1.76;;;;;;;17.64;49.08;101052.04;;;;-51
2022/04/15 04:09:04;;;;;;;1.88;1.78;;;;;;;17.63;49.12;101053.14;;;;-51
2022/04/15 04:12:04;;;;;;;1.83;1.73;;;;;;;17.63;49.07;101052.64;;;;-51
2022/04/15 04:15:04;;;;;;;1.93;1.81;;;;;;;17.63;49.10;101059.61;;;;-51
2022/04/15 04:18:04;;;;;;;1.80;1.70;;;;;;;17.63;49.07;101057.91;;;;-50
2022/04/15 04:21:04;;;;;;;1.99;1.85;;;;;;;17.63;49.03;101061.31;;;;-51
2022/04/15 04:24:04;;;;;;;1.81;1.71;;;;;;;17.62;49.10;101061.31;;;;-59
2022/04/15 04:27:03;;;;;;;1.80;1.70;;;;;;;17.62;49.01;101062.12;;;;-59
2022/04/15 04:30:04;;;;;;;1.77;1.67;;;;;;;17.62;49.01;101067.39;;;;-59
2022/04/15 04:33:04;;;;;;;1.98;1.87;;;;;;;17.62;49.13;101072.01;;;;-58
2022/04/15 04:36:04;;;;;;;1.93;1.77;;;;;;;17.61;49.05;101071.64;;;;-59
2022/04/15 04:39:04;;;;;;;1.91;1.81;;;;;;;17.61;49.02;101073.02;;;;-58
2022/04/15 04:42:34;;;;;;;1.80;1.70;;;;;;;17.61;48.96;101073.10;;;;-59
2022/04/15 04:45:04;;;;;;;1.70;1.60;;;;;;;17.62;48.90;101079.75;;;;-58
2022/04/15 04:48:04;;;;;;;1.83;1.73;;;;;;;17.61;48.91;101080.96;;;;-58
2022/04/15 04:51:04;;;;;;;1.76;1.66;;;;;;;17.62;48.87;101087.89;;;;-58
2022/04/15 04:54:04;;;;;;;1.80;1.70;;;;;;;17.63;48.88;101090.33;;;;-49
2022/04/15 04:57:04;;;;;;;1.86;1.76;;;;;;;17.63;48.77;101096.58;;;;-49
2022/04/15 05:00:04;;;;;;;1.79;1.59;;;;;;;17.65;48.89;101102.05;;;;-49
2022/04/15 05:03:04;;;;;;;2.49;1.69;;;;;;;17.67;48.65;101106.89;;;;-49
2022/04/15 05:06:04;;;;;;;1.69;1.59;;;;;;;17.70;48.74;101110.91;;;;-49
2022/04/15 05:09:04;;;;;;;1.76;1.66;;;;;;;17.73;48.87;101114.33;;;;-59
2022/04/15 05:12:04;;;;;;;1.66;1.56;;;;;;;17.75;48.88;101114.30;;;;-51
2022/04/15 05:15:34;;;;;;;1.80;1.67;;;;;;;17.77;48.84;101115.80;;;;-51
2022/04/15 05:18:34;;;;;;;1.70;1.60;;;;;;;17.80;48.99;101116.19;;;;-51
2022/04/15 05:21:34;;;;;;;1.60;1.50;;;;;;;17.83;48.94;101122.95;;;;-51
2022/04/15 05:24:34;;;;;;;1.70;1.60;;;;;;;17.84;48.97;101121.09;;;;-49
2022/04/15 05:27:34;;;;;;;1.61;1.51;;;;;;;17.86;48.83;101124.31;;;;-49
2022/04/15 05:30:04;;;;;;;1.62;1.52;;;;;;;17.89;48.80;101128.21;;;;-49
2022/04/15 05:33:04;;;;;;;1.70;1.60;;;;;;;17.91;48.69;101126.92;;;;-51
2022/04/15 05:36:04;;;;;;;1.79;1.69;;;;;;;17.92;48.98;101126.08;;;;-49
2022/04/15 05:39:04;;;;;;;1.63;1.53;;;;;;;17.94;48.92;101126.69;;;;-51
2022/04/15 05:42:04;;;;;;;1.65;1.55;;;;;;;17.95;48.78;101132.41;;;;-49
2022/04/15 05:45:04;;;;;;;1.57;1.47;;;;;;;17.96;48.73;101133.70;;;;-50
2022/04/15 05:48:04;;;;;;;1.74;1.51;;;;;;;17.97;48.85;101137.97;;;;-49
2022/04/15 05:51:04;;;;;;;1.60;1.50;;;;;;;17.98;48.78;101139.84;;;;-49
2022/04/15 05:54:04;;;;;;;1.59;1.49;;;;;;;17.98;48.79;101142.52;;;;-50
2022/04/15 05:57:04;;;;;;;1.70;1.60;;;;;;;17.99;48.76;101143.66;;;;-49
2022/04/15 06:00:04;;;;;;;1.91;1.60;;;;;;;17.99;48.74;101144.95;;;;-46
2022/04/15 06:03:04;;;;;;;1.74;1.64;;;;;;;18.00;48.73;101145.65;;;;-45
2022/04/15 06:06:04;;;;;;;1.68;1.58;;;;;;;18.00;48.76;101147.03;;;;-45
2022/04/15 06:09:04;;;;;;;1.70;1.60;;;;;;;18.00;48.68;101153.19;;;;-47
2022/04/15 06:12:04;;;;;;;1.64;1.54;;;;;;;18.00;48.70;101155.78;;;;-45
2022/04/15 06:15:04;;;;;;;1.60;1.50;;;;;;;18.01;48.64;101158.14;;;;-45
2022/04/15 06:18:04;;;;;;;1.71;1.61;;;;;;;18.01;48.70;101158.47;;;;-45
2022/04/15 06:21:34;;;;;;;1.60;1.50;;;;;;;18.00;48.63;101159.76;;;;-46
2022/04/15 06:24:34;;;;;;;1.65;1.55;;;;;;;18.01;48.67;101166.83;;;;-50
2022/04/15 06:56:10;;;;;;;12.19;7.18;;;;;;;17.78;52.53;101174.59;;;;-53
2022/04/15 06:59:08;;;;;;;9.17;7.00;;;;;;;17.72;52.87;101179.30;;;;-53
2022/04/15 07:01:38;;;;;;;9.57;7.19;;;;;;;17.72;52.85;101183.84;;;;-50
2022/04/15 07:05:09;;;;;;;11.47;6.95;;;;;;;17.74;52.62;101179.95;;;;-49
2022/04/15 07:08:09;;;;;;;13.67;6.48;;;;;;;17.81;52.26;101183.12;;;;-49
2022/04/15 07:10:52;;;;;;;6.39;5.77;;;;;;;17.85;51.89;101183.49;;;;-49
2022/04/15 07:13:38;;;;;;;7.96;5.35;;;;;;;17.90;51.31;101184.65;;;;-49
2022/04/15 07:17:08;;;;;;;7.27;4.94;;;;;;;17.91;51.04;101184.62;;;;-49
2022/04/15 07:19:38;;;;;;;5.25;4.49;;;;;;;17.94;50.80;101187.99;;;;-60
2022/04/15 07:23:08;;;;;;;5.42;4.15;;;;;;;17.94;50.49;101186.22;;;;-60
2022/04/15 07:26:08;;;;;;;5.31;3.91;;;;;;;17.95;50.38;101187.80;;;;-60
2022/04/15 07:29:08;;;;;;;4.92;3.80;;;;;;;17.97;50.17;101189.27;;;;-60
2022/04/15 07:31:39;;;;;;;5.05;3.83;;;;;;;17.98;50.04;101186.31;;;;-60
2022/04/15 07:35:08;;;;;;;4.41;3.60;;;;;;;17.99;49.99;101189.16;;;;-60
2022/04/15 07:37:38;;;;;;;4.23;3.39;;;;;;;17.99;49.90;101190.41;;;;-60
2022/04/15 07:41:08;;;;;;;3.92;3.40;;;;;;;17.99;49.76;101190.41;;;;-60
2022/04/15 07:44:08;;;;;;;3.55;3.25;;;;;;;17.99;49.75;101193.00;;;;-61
2022/04/15 07:47:09;;;;;;;3.37;3.03;;;;;;;18.00;49.77;101188.63;;;;-54
2022/04/15 07:50:08;;;;;;;3.69;3.23;;;;;;;18.00;49.71;101188.71;;;;-53
2022/04/15 07:53:08;;;;;;;3.47;3.03;;;;;;;18.01;49.60;101187.26;;;;-54
2022/04/15 07:56:08;;;;;;;3.74;3.11;;;;;;;18.01;49.55;101184.83;;;;-53
2022/04/15 07:58:38;;;;;;;3.68;2.94;;;;;;;18.01;49.52;101190.27;;;;-53
2022/04/15 08:02:09;;;;;;;4.33;2.89;;;;;;;18.01;49.49;101191.64;;;;-53
2022/04/15 08:05:08;;;;;;;5.92;2.99;;;;;;;17.99;49.82;101189.92;;;;-51
2022/04/15 08:07:38;;;;;;;5.61;2.90;;;;;;;18.02;50.11;101193.70;;;;-52
2022/04/15 08:10:38;;;;;;;5.10;2.90;;;;;;;18.04;50.09;101194.41;;;;-56
2022/04/15 08:14:08;;;;;;;4.89;2.91;;;;;;;18.04;49.78;101197.48;;;;-55
2022/04/15 08:17:09;;;;;;;3.12;2.52;;;;;;;18.04;49.78;101198.86;;;;-56
2022/04/15 08:20:08;;;;;;;4.55;2.70;;;;;;;18.04;49.66;101201.46;;;;-55
2022/04/15 08:32:10;;;;;;;4.31;2.77;;;;;;;18.05;50.40;101203.26;;;;-45
2022/04/15 08:34:53;;;;;;;5.14;2.81;;;;;;;18.06;50.61;101202.65;;;;-46
2022/04/15 08:37:53;;;;;;;3.13;2.83;;;;;;;18.09;50.59;101206.19;;;;-53
2022/04/15 08:40:53;;;;;;;5.87;2.83;;;;;;;18.11;50.75;101206.64;;;;-59
2022/04/15 08:43:55;;;;;;;3.28;2.78;;;;;;;18.13;50.82;101206.86;;;;-56
2022/04/15 08:46:53;;;;;;;6.50;2.80;;;;;;;18.16;50.92;101207.97;;;;-54
2022/04/15 08:52:23;;;;;;;5.10;2.83;;;;;;;18.16;50.44;101208.57;;;;-51
2022/04/15 08:55:24;;;;;;;5.06;2.50;;;;;;;18.15;50.47;101209.91;;;;-47
2022/04/15 08:58:23;;;;;;;6.97;2.96;;;;;;;18.17;50.52;101207.03;;;;-60
2022/04/15 09:01:23;;;;;;;3.75;2.55;;;;;;;18.17;50.27;101211.98;;;;-57
2022/04/15 09:07:23;;;;;;;4.75;2.75;;;;;;;18.17;50.10;101211.42;;;;-54
2022/04/15 09:10:23;;;;;;;6.40;2.79;;;;;;;18.17;50.48;101209.06;;;;-54
2022/04/15 09:13:53;;;;;;;5.60;2.73;;;;;;;18.17;50.56;101211.09;;;;-49
2022/04/15 09:16:53;;;;;;;4.67;2.84;;;;;;;18.16;50.61;101209.05;;;;-50
2022/04/15 09:19:53;;;;;;;6.07;2.58;;;;;;;18.17;50.60;101211.09;;;;-49
2022/04/15 09:22:53;;;;;;;4.49;2.67;;;;;;;18.17;50.40;101212.64;;;;-52
2022/04/15 09:25:23;;;;;;;5.72;2.77;;;;;;;18.18;50.25;101213.48;;;;-50
2022/04/15 09:28:23;;;;;;;4.60;2.69;;;;;;;18.18;50.35;101212.59;;;;-51
2022/04/15 09:31:23;;;;;;;6.33;2.69;;;;;;;18.20;50.27;101215.53;;;;-55
2022/04/15 09:34:23;;;;;;;5.85;2.50;;;;;;;18.19;50.27;101214.47;;;;-53
2022/04/15 09:37:23;;;;;;;6.55;2.88;;;;;;;18.20;50.02;101216.86;;;;-56
2022/04/15 09:40:26;;;;;;;4.74;2.66;;;;;;;18.21;50.05;101218.33;;;;-58
2022/04/15 09:43:53;;;;;;;6.00;2.73;;;;;;;18.21;50.41;101220.11;;;;-54
2022/04/15 09:46:53;;;;;;;3.80;2.57;;;;;;;18.20;50.31;101214.95;;;;-52
2022/04/15 09:50:25;;;;;;;5.26;2.67;;;;;;;18.19;50.42;101220.80;;;;-54
2022/04/15 09:53:55;;;;;;;3.13;2.59;;;;;;;18.20;50.36;101220.34;;;;-52
2022/04/15 10:33:27;;;;;;;3.15;2.43;;;;;;;18.34;49.92;101207.91;;;;-49
2022/04/15 10:38:57;;;;;;;2.61;2.41;;;;;;;18.34;50.16;101204.26;;;;-49
2022/04/15 10:41:57;;;;;;;2.79;2.34;;;;;;;18.33;50.03;101196.87;;;;-50
2022/04/15 10:44:57;;;;;;;3.25;2.39;;;;;;;18.34;50.13;101202.23;;;;-44
2022/04/15 10:48:30;;;;;;;2.89;2.15;;;;;;;18.35;49.92;101202.75;;;;-45
2022/04/15 10:50:58;;;;;;;3.86;2.15;;;;;;;18.33;49.77;101202.30;;;;-45
2022/04/15 11:01:59;;;;;;;4.63;2.19;;;;;;;18.28;49.78;101192.84;;;;-52
2022/04/15 11:07:57;;;;;;;5.12;2.31;;;;;;;18.28;49.94;101204.16;;;;-51
2022/04/15 11:11:02;;;;;;;2.30;2.10;;;;;;;18.30;50.02;101200.19;;;;-53
2022/04/15 11:14:02;;;;;;;3.51;2.17;;;;;;;18.30;49.99;101192.19;;;;-46
2022/04/15 11:17:27;;;;;;;3.89;2.02;;;;;;;18.29;49.88;101186.96;;;;-50
2022/04/15 11:20:28;;;;;;;3.88;2.23;;;;;;;18.30;50.13;101187.94;;;;-55
2022/04/15 11:23:27;;;;;;;2.30;2.10;;;;;;;18.30;50.04;101185.50;;;;-53
2022/04/15 11:25:57;;;;;;;2.18;1.99;;;;;;;18.30;50.08;101188.83;;;;-48
2022/04/15 11:28:58;;;;;;;2.30;2.10;;;;;;;18.30;49.99;101191.87;;;;-56
2022/04/15 11:31:59;;;;;;;2.61;2.05;;;;;;;18.30;49.87;101186.35;;;;-51
2022/04/15 11:35:27;;;;;;;3.25;2.15;;;;;;;18.33;49.96;101184.21;;;;-54
2022/04/15 11:38:00;;;;;;;2.22;1.99;;;;;;;18.32;50.03;101174.55;;;;-57
2022/04/15 11:41:28;;;;;;;3.49;2.10;;;;;;;18.34;49.79;101188.68;;;;-57
2022/04/15 11:43:59;;;;;;;2.78;2.15;;;;;;;18.33;49.79;101184.20;;;;-57
2022/04/15 11:47:27;;;;;;;3.05;1.97;;;;;;;18.31;49.75;101177.19;;;;-57
2022/04/15 11:50:28;;;;;;;2.11;1.92;;;;;;;18.29;49.71;101177.71;;;;-57
2022/04/15 12:04:31;;;;;;;2.44;2.07;;;;;;;18.27;49.44;101183.10;;;;-56
2022/04/15 12:08:02;;;;;;;3.39;2.13;;;;;;;18.27;49.48;101180.98;;;;-55
2022/04/15 12:10:32;;;;;;;2.03;1.93;;;;;;;18.25;49.39;101177.45;;;;-55
2022/04/15 12:13:32;;;;;;;2.11;1.91;;;;;;;18.25;49.40;101172.42;;;;-57
2022/04/15 12:17:02;;;;;;;2.06;1.85;;;;;;;18.25;49.37;101169.58;;;;-58
2022/04/15 12:20:02;;;;;;;2.90;1.87;;;;;;;18.24;49.30;101168.73;;;;-58
2022/04/15 12:22:32;;;;;;;2.87;1.90;;;;;;;18.24;49.24;101164.79;;;;-57
2022/04/15 12:26:14;;;;;;;1.84;1.74;;;;;;;18.24;49.25;101168.69;;;;-57
2022/04/15 12:31:32;;;;;;;2.15;1.95;;;;;;;18.22;49.15;101161.42;;;;-57
2022/04/15 12:34:33;;;;;;;1.79;1.69;;;;;;;18.22;49.24;101160.36;;;;-59
2022/04/15 12:37:32;;;;;;;2.27;1.81;;;;;;;18.22;49.18;101168.15;;;;-59
2022/04/15 12:40:32;;;;;;;1.95;1.75;;;;;;;18.22;49.23;101167.30;;;;-58
2022/04/15 12:43:32;;;;;;;3.03;1.89;;;;;;;18.21;49.14;101161.05;;;;-52
2022/04/15 12:46:32;;;;;;;1.97;1.70;;;;;;;18.23;49.42;101156.95;;;;-51
2022/04/15 12:49:33;;;;;;;7.81;2.01;;;;;;;18.25;49.57;101150.59;;;;-59
2022/04/15 12:52:32;;;;;;;7.89;1.99;;;;;;;18.26;49.59;101143.14;;;;-56
2022/04/15 12:56:01;;;;;;;8.55;2.00;;;;;;;18.29;50.11;101148.66;;;;-51
2022/04/15 12:59:02;;;;;;;7.35;2.01;;;;;;;18.31;49.95;101144.16;;;;-51
2022/04/15 13:01:54;;;;;;;6.69;1.90;;;;;;;18.33;50.16;101141.61;;;;-50
2022/04/15 13:04:32;;;;;;;6.12;1.89;;;;;;;18.35;50.00;101140.03;;;;-52
2022/04/15 13:08:02;;;;;;;8.31;2.10;;;;;;;18.37;50.17;101137.07;;;;-52
2022/04/15 13:10:35;;;;;;;7.16;1.95;;;;;;;18.38;50.12;101138.55;;;;-53
2022/04/15 13:13:32;;;;;;;3.75;1.80;;;;;;;18.38;50.06;101138.14;;;;-53
2022/04/15 13:17:02;;;;;;;5.75;1.99;;;;;;;18.39;50.09;101138.74;;;;-54
2022/04/15 13:20:02;;;;;;;2.56;1.91;;;;;;;18.41;49.94;101131.08;;;;-52
2022/04/15 13:23:02;;;;;;;3.54;1.81;;;;;;;18.42;50.01;101127.84;;;;-55
2022/04/15 13:26:02;;;;;;;4.45;1.89;;;;;;;18.43;50.05;101125.73;;;;-50
2022/04/15 13:29:04;;;;;;;2.65;1.79;;;;;;;18.44;50.04;101125.77;;;;-55
2022/04/15 13:32:02;;;;;;;3.36;1.82;;;;;;;18.45;49.96;101123.38;;;;-53
2022/04/15 13:34:33;;;;;;;4.15;1.71;;;;;;;18.45;49.91;101122.16;;;;-51
2022/04/15 13:38:02;;;;;;;5.52;1.89;;;;;;;18.46;49.79;101123.22;;;;-54
2022/04/15 13:41:02;;;;;;;3.53;2.03;;;;;;;18.50;49.83;101123.55;;;;-55
2022/04/15 13:44:02;;;;;;;2.85;1.79;;;;;;;18.50;49.66;101120.46;;;;-59
2022/04/15 13:47:03;;;;;;;3.49;1.69;;;;;;;18.50;49.60;101119.73;;;;-58
2022/04/15 13:50:02;;;;;;;2.53;1.90;;;;;;;18.50;49.38;101118.11;;;;-59
2022/04/15 13:58:32;;;;;;;2.57;1.81;;;;;;;18.49;49.22;101114.05;;;;-59
2022/04/15 14:02:02;;;;;;;2.31;1.80;;;;;;;18.48;49.14;101115.80;;;;-59
2022/04/15 14:04:57;;;;;;;3.86;1.91;;;;;;;18.48;49.11;101116.60;;;;-55
2022/04/15 14:07:32;;;;;;;2.25;1.77;;;;;;;18.48;49.04;101119.20;;;;-55
2022/04/15 14:11:02;;;;;;;3.09;1.69;;;;;;;18.48;48.99;101119.20;;;;-55
2022/04/15 14:14:02;;;;;;;2.04;1.61;;;;;;;18.47;48.93;101120.25;;;;-54
2022/04/15 14:17:02;;;;;;;2.17;1.46;;;;;;;18.46;48.94;101122.33;;;;-54
2022/04/15 14:20:02;;;;;;;2.57;1.60;;;;;;;18.45;48.91;101117.45;;;;-54
2022/04/15 14:23:02;;;;;;;2.32;1.65;;;;;;;18.45;48.91;101114.85;;;;-54
2022/04/15 14:26:02;;;;;;;2.53;1.68;;;;;;;18.45;48.84;101113.31;;;;-57
2022/04/15 14:28:32;;;;;;;1.71;1.61;;;;;;;18.45;48.87;101106.41;;;;-59
2022/04/15 14:32:03;;;;;;;2.54;1.71;;;;;;;18.44;48.84;101112.95;;;;-54
2022/04/15 14:35:02;;;;;;;3.67;1.76;;;;;;;18.44;48.83;101111.00;;;;-55
2022/04/15 14:37:32;;;;;;;2.25;1.70;;;;;;;18.43;48.81;101107.98;;;;-55
2022/04/15 14:41:04;;;;;;;1.84;1.57;;;;;;;18.42;48.78;101101.87;;;;-55
2022/04/15 14:44:02;;;;;;;1.70;1.60;;;;;;;18.42;48.76;101097.41;;;;-55
2022/04/15 14:47:02;;;;;;;1.82;1.71;;;;;;;18.41;48.77;101105.03;;;;-57
2022/04/15 14:50:05;;;;;;;2.05;1.57;;;;;;;18.40;48.75;101110.67;;;;-57
2022/04/15 14:53:02;;;;;;;2.07;1.71;;;;;;;18.40;48.79;101105.64;;;;-55
2022/04/15 14:56:02;;;;;;;1.77;1.56;;;;;;;18.39;48.72;101100.84;;;;-54
2022/04/15 14:59:02;;;;;;;1.66;1.56;;;;;;;18.39;48.70;101099.47;;;;-55
2022/04/15 15:02:02;;;;;;;2.37;1.60;;;;;;;18.38;48.68;101096.67;;;;-55
2022/04/15 15:04:55;;;;;;;2.63;1.70;;;;;;;18.36;49.13;101100.69;;;;-53
2022/04/15 15:07:32;;;;;;;1.74;1.60;;;;;;;18.37;49.28;101101.13;;;;-54
2022/04/15 15:11:02;;;;;;;2.90;1.70;;;;;;;18.37;49.34;101096.58;;;;-52
2022/04/15 15:14:02;;;;;;;1.63;1.51;;;;;;;18.37;49.45;101091.39;;;;-52
2022/04/15 15:17:02;;;;;;;4.36;1.48;;;;;;;18.38;49.54;101092.86;;;;-51
2022/04/15 15:20:03;;;;;;;2.91;1.55;;;;;;;18.38;49.57;101088.31;;;;-51
2022/04/15 15:23:02;;;;;;;3.75;1.60;;;;;;;18.39;49.60;101082.18;;;;-53
2022/04/15 15:31:33;;;;;;;3.63;1.69;;;;;;;18.43;49.66;101085.31;;;;-53
2022/04/15 15:34:32;;;;;;;3.11;1.68;;;;;;;18.45;49.69;101091.20;;;;-52
2022/04/15 15:37:32;;;;;;;3.51;1.80;;;;;;;18.44;49.54;101088.20;;;;-53
2022/04/15 15:40:32;;;;;;;2.03;1.59;;;;;;;18.47;49.71;101085.89;;;;-54
2022/04/15 15:43:32;;;;;;;3.15;1.69;;;;;;;18.48;49.60;101095.02;;;;-54
2022/04/15 15:46:32;;;;;;;1.64;1.54;;;;;;;18.47;49.68;101088.33;;;;-47
2022/04/15 15:49:32;;;;;;;3.27;1.71;;;;;;;18.48;49.63;101086.33;;;;-52
2022/04/15 15:52:32;;;;;;;2.38;1.65;;;;;;;18.48;49.61;101085.92;;;;-56
2022/04/15 15:55:32;;;;;;;2.63;1.70;;;;;;;18.50;49.51;101086.38;;;;-55
2022/04/15 15:58:32;;;;;;;1.68;1.57;;;;;;;18.52;49.56;101093.96;;;;-56
2022/04/15 16:01:32;;;;;;;1.86;1.58;;;;;;;18.51;49.72;101089.38;;;;-54
2022/04/15 16:04:32;;;;;;;2.16;1.71;;;;;;;18.53;49.61;101091.45;;;;-56
2022/04/15 16:07:32;;;;;;;3.22;1.50;;;;;;;18.54;49.64;101095.06;;;;-52
2022/04/15 16:10:32;;;;;;;2.27;1.70;;;;;;;18.55;49.70;101093.39;;;;-55
2022/04/15 16:13:32;;;;;;;1.72;1.50;;;;;;;18.56;49.60;101095.52;;;;-52
2022/04/15 16:16:32;;;;;;;1.83;1.53;;;;;;;18.57;49.56;101095.43;;;;-54
2022/04/15 16:19:32;;;;;;;1.71;1.59;;;;;;;18.58;49.63;101091.16;;;;-59
2022/04/15 16:22:33;;;;;;;2.67;1.61;;;;;;;18.57;49.63;101089.34;;;;-63
2022/04/15 16:25:32;;;;;;;2.21;1.55;;;;;;;18.56;49.60;101089.58;;;;-54
2022/04/15 16:28:33;;;;;;;1.72;1.60;;;;;;;18.55;49.72;101091.04;;;;-50
2022/04/15 16:31:32;;;;;;;1.87;1.67;;;;;;;18.57;49.63;101093.16;;;;-53
2022/04/15 16:34:32;;;;;;;3.92;1.67;;;;;;;18.57;49.59;101097.14;;;;-59
2022/04/15 16:38:02;;;;;;;3.93;1.57;;;;;;;18.56;49.68;101096.89;;;;-54
2022/04/15 16:41:05;;;;;;;2.17;1.44;;;;;;;18.57;49.47;101097.46;;;;-50
2022/04/15 16:43:32;;;;;;;3.15;1.68;;;;;;;18.58;49.53;101098.22;;;;-60
2022/04/15 16:46:32;;;;;;;1.81;1.51;;;;;;;18.58;49.53;101097.09;;;;-56
2022/04/15 16:49:32;;;;;;;1.83;1.44;;;;;;;18.58;49.52;101098.72;;;;-53
2022/04/15 16:52:32;;;;;;;2.33;1.60;;;;;;;18.58;49.38;101100.17;;;;-59
2022/04/15 16:58:41;;;;;;;2.15;1.71;;;;;;;18.59;49.45;101103.59;;;;-58
2022/04/15 17:01:32;;;;;;;4.22;1.61;;;;;;;18.57;49.25;101105.45;;;;-52
2022/04/15 17:04:32;;;;;;;2.23;1.63;;;;;;;18.56;49.32;101106.78;;;;-52
2022/04/15 17:07:32;;;;;;;2.86;1.56;;;;;;;18.54;49.30;101106.42;;;;-58
2022/04/15 17:10:32;;;;;;;2.17;1.52;;;;;;;18.54;49.30;101110.64;;;;-58
2022/04/15 17:13:32;;;;;;;2.29;1.59;;;;;;;18.52;49.25;101107.44;;;;-49
2022/04/15 17:16:35;;;;;;;1.93;1.53;;;;;;;18.52;49.21;101113.77;;;;-49
2022/04/15 17:19:34;;;;;;;2.85;1.47;;;;;;;18.50;49.22;101116.33;;;;-49
2022/04/15 17:22:32;;;;;;;3.03;1.57;;;;;;;18.49;49.08;101117.45;;;;-52
2022/04/15 17:25:32;;;;;;;1.49;1.30;;;;;;;18.50;49.05;101120.86;;;;-52
2022/04/15 17:28:32;;;;;;;1.47;1.37;;;;;;;18.49;49.06;101116.56;;;;-55
2022/04/15 17:32:02;;;;;;;2.73;1.50;;;;;;;18.48;49.05;101115.47;;;;-52
2022/04/15 17:35:02;;;;;;;2.17;1.49;;;;;;;18.47;48.90;101115.22;;;;-52
2022/04/15 17:38:02;;;;;;;3.57;1.50;;;;;;;18.47;48.98;101120.17;;;;-52
2022/04/15 17:40:57;;;;;;;1.55;1.45;;;;;;;18.46;48.96;101123.46;;;;-49
2022/04/15 17:43:32;;;;;;;1.58;1.48;;;;;;;18.46;48.94;101122.08;;;;-59
2022/04/15 17:46:33;;;;;;;3.21;1.49;;;;;;;18.45;48.90;101126.54;;;;-52
2022/04/15 17:49:33;;;;;;;1.60;1.50;;;;;;;18.44;48.93;101129.17;;;;-49
2022/04/15 17:52:32;;;;;;;1.86;1.50;;;;;;;18.44;48.91;101131.38;;;;-54
2022/04/15 17:55:32;;;;;;;1.92;1.50;;;;;;;18.43;48.92;101135.42;;;;-58
2022/04/15 17:58:32;;;;;;;1.59;1.49;;;;;;;18.44;48.84;101139.41;;;;-55
2022/04/15 18:01:32;;;;;;;1.84;1.59;;;;;;;18.42;48.82;101137.25;;;;-55
2022/04/15 18:04:32;;;;;;;1.95;1.71;;;;;;;18.43;48.81;101143.91;;;;-52
2022/04/15 18:07:32;;;;;;;1.80;1.54;;;;;;;18.40;48.85;101147.35;;;;-52
2022/04/15 18:10:32;;;;;;;1.56;1.44;;;;;;;18.40;48.82;101153.92;;;;-50
2022/04/15 18:14:02;;;;;;;2.00;1.60;;;;;;;18.40;48.81;101154.08;;;;-49
2022/04/15 18:16:55;;;;;;;2.45;1.70;;;;;;;18.40;48.80;101157.17;;;;-49
2022/04/15 18:19:32;;;;;;;1.67;1.50;;;;;;;18.39;48.78;101166.17;;;;-49
2022/04/15 18:22:32;;;;;;;2.44;1.62;;;;;;;18.37;48.77;101163.94;;;;-50
2022/04/15 18:25:32;;;;;;;1.92;1.65;;;;;;;18.37;48.79;101165.48;;;;-50
2022/04/15 18:28:32;;;;;;;1.67;1.51;;;;;;;18.37;48.77;101167.91;;;;-58
2022/04/15 18:31:32;;;;;;;7.07;1.51;;;;;;;18.38;48.88;101174.41;;;;-52
2022/04/15 18:34:32;;;;;;;2.59;1.54;;;;;;;18.38;48.89;101182.04;;;;-46
2022/04/15 18:37:32;;;;;;;4.29;1.52;;;;;;;18.39;48.90;101187.52;;;;-47
2022/04/15 18:40:32;;;;;;;3.01;1.46;;;;;;;18.40;49.04;101189.39;;;;-55
2022/04/15 18:43:32;;;;;;;4.23;1.55;;;;;;;18.42;49.10;101193.98;;;;-54
2022/04/15 18:46:32;;;;;;;2.30;1.50;;;;;;;18.41;49.13;101200.55;;;;-57
2022/04/15 18:52:38;;;;;;;1.57;1.42;;;;;;;18.41;49.22;101210.37;;;;-58
2022/04/15 18:55:32;;;;;;;3.05;1.60;;;;;;;18.42;49.15;101206.64;;;;-62
2022/04/15 19:11:02;;;;;;;1.63;1.51;;;;;;;18.38;49.08;101230.89;;;;-63
2022/04/15 19:14:03;;;;;;;2.86;1.57;;;;;;;18.37;49.05;101235.10;;;;-63
2022/04/15 20:02:55;;;;;;;2.32;2.11;;;;;;;18.61;49.09;101313.73;;;;-54
2022/04/15 20:05:55;;;;;;;12.90;12.02;;;;;;;18.61;49.03;101318.36;;;;-57
2022/04/15 20:12:25;;;;;;;3.81;1.50;;;;;;;18.62;48.98;101323.34;;;;-54
2022/04/15 20:15:27;;;;;;;2.32;1.59;;;;;;;18.61;49.03;101329.56;;;;-50
2022/04/15 20:18:25;;;;;;;2.21;1.67;;;;;;;18.61;49.00;101341.41;;;;-48
2022/04/15 20:21:25;;;;;;;3.68;1.50;;;;;;;18.62;49.03;101346.56;;;;-56
2022/04/15 20:24:25;;;;;;;2.16;1.59;;;;;;;18.61;49.04;101349.94;;;;-52
2022/04/15 20:27:27;;;;;;;1.72;1.53;;;;;;;18.61;49.13;101354.72;;;;-53
2022/04/15 20:30:25;;;;;;;1.75;1.57;;;;;;;18.59;49.11;101353.95;;;;-56
2022/04/15 20:33:25;;;;;;;1.83;1.60;;;;;;;18.58;49.12;101354.02;;;;-55
2022/04/15 20:36:25;;;;;;;1.92;1.63;;;;;;;18.58;49.25;101361.33;;;;-57
2022/04/15 20:39:25;;;;;;;1.73;1.62;;;;;;;18.56;49.36;101368.02;;;;-57